Munden, Kansas
Current Conditions -  °F | °C
As of 10:15 PM on Wednesday 28 Jan 2015 (Local Time) from KHJH Reporting Station
Clear Clear  
Wind Chill: 53°   Ceiling: Unl
Heat Index: 53°   Visibility: 10mi
Dew Point: 29°   Wind: 14mph
Humidity: 40%   Direction: 340°NNW
Pressure: 29.94"   Gusts: 18mph
Location:  39.91°N, 97.54°W
Report Text: KHJH 290415Z AUTO 34012G16KT 10SM CLR 12/M02 A2994 RMK AO2 T01171016
Loading
Personal Weather Stations






























Interactive Weather Map New forecast layout! Learn more

10-Day Weather Forecast

Advertisements
Track Severe Weather on mobile